Time;durP1;ratioP1;P1;durP2;ratioP2;P2;SDS_P1;SDS_P2;PMS_P1;PMS_P2;Temp;Humidity;BMP_temperature;BMP_pressure;BME280_temperature;BME280_humidity;BME280_pressure;Samples;Min_cycle;Max_cycle;Signal;HPM_P1;HPM_P2
2020/12/22 00:01:28;;;;;;;6.00;0.25;;;24.10;89.10;;;;;;5048538;28;20386;-88
2020/12/22 00:03:55;;;;;;;2.90;0.10;;;24.40;90.40;;;;;;5059237;28;20386;-86
2020/12/22 00:06:25;;;;;;;1.67;0.13;;;24.60;87.90;;;;;;5058663;28;20874;-88
2020/12/22 00:08:53;;;;;;;1.80;0.20;;;24.60;90.00;;;;;;5050448;28;20396;-86
2020/12/22 00:11:20;;;;;;;0.20;0.17;;;24.50;88.80;;;;;;5033839;28;20708;-85
2020/12/22 00:13:48;;;;;;;1.85;0.10;;;24.40;90.00;;;;;;5053405;28;20384;-87
2020/12/22 00:16:15;;;;;;;0.20;0.10;;;24.40;87.80;;;;;;5038087;28;20477;-86
2020/12/22 00:18:42;;;;;;;1.55;0.10;;;24.30;86.80;;;;;;5044306;28;20395;-86
2020/12/22 00:21:10;;;;;;;1.20;0.00;;;24.50;85.20;;;;;;5056029;28;20960;-88
2020/12/22 00:23:37;;;;;;;0.25;0.00;;;24.40;85.60;;;;;;5049981;28;20433;-89
2020/12/22 00:26:17;;;;;;;0.20;0.00;;;24.40;83.10;;;;;;5058542;28;20958;-88
2020/12/22 00:28:44;;;;;;;3.00;0.10;;;24.60;82.40;;;;;;5031972;28;20406;-88
2020/12/22 00:31:11;;;;;;;1.35;0.20;;;24.90;84.20;;;;;;5034085;28;20436;-89
2020/12/22 00:33:39;;;;;;;0.17;0.08;;;25.00;84.60;;;;;;5052264;28;20383;-89
2020/12/22 00:36:10;;;;;;;0.30;0.08;;;25.00;81.00;;;;;;5034993;28;20399;-89
2020/12/22 00:38:37;;;;;;;3.90;0.75;;;24.90;81.70;;;;;;5014263;28;20766;-89
2020/12/22 00:41:05;;;;;;;0.35;0.10;;;25.00;83.00;;;;;;5032457;28;20385;-90
2020/12/22 00:43:32;;;;;;;2.40;0.30;;;25.00;82.40;;;;;;5032315;28;20415;-89
2020/12/22 00:45:59;;;;;;;2.38;0.30;;;24.90;83.90;;;;;;5051004;28;20406;-91
2020/12/22 00:48:27;;;;;;;1.67;1.20;;;25.00;82.70;;;;;;5071340;28;20402;-89
2020/12/22 00:50:54;;;;;;;1.48;1.23;;;24.80;86.30;;;;;;5070552;28;20741;-90
2020/12/22 00:53:21;;;;;;;1.48;1.35;;;25.00;85.60;;;;;;5046164;28;20386;-93
2020/12/22 00:55:49;;;;;;;2.25;1.30;;;25.00;88.50;;;;;;5057515;28;20394;-91
2020/12/22 00:58:16;;;;;;;0.90;0.70;;;25.20;88.90;;;;;;5058123;28;20420;-90
2020/12/22 01:00:43;;;;;;;2.58;1.10;;;25.10;84.10;;;;;;5024434;28;20744;-91
2020/12/22 01:03:10;;;;;;;2.78;1.35;;;25.00;85.80;;;;;;5034994;28;20441;-91
2020/12/22 01:05:38;;;;;;;3.97;1.37;;;24.70;86.90;;;;;;5051337;28;20402;-94
2020/12/22 01:08:08;;;;;;;2.30;0.60;;;24.60;90.10;;;;;;5054487;28;20901;-91
2020/12/22 01:10:35;;;;;;;0.88;0.50;;;24.40;83.20;;;;;;5032632;28;20453;-93
2020/12/22 01:13:02;;;;;;;4.18;0.70;;;24.30;84.70;;;;;;5052591;28;20392;-93
2020/12/22 01:15:30;;;;;;;2.55;1.25;;;24.40;87.40;;;;;;5051062;28;20405;-89
2020/12/22 01:17:57;;;;;;;2.42;0.90;;;24.40;89.30;;;;;;5060444;28;20411;-90
2020/12/22 01:20:24;;;;;;;1.35;0.70;;;24.40;87.00;;;;;;5055476;28;20470;-90
2020/12/22 01:22:51;;;;;;;0.80;0.80;;;24.50;86.40;;;;;;5050944;28;20394;-91
2020/12/22 01:25:19;;;;;;;1.00;0.80;;;24.50;86.10;;;;;;5041690;28;20512;-88
2020/12/22 01:27:46;;;;;;;2.13;0.88;;;24.60;87.70;;;;;;5040633;28;20761;-88
2020/12/22 01:30:13;;;;;;;2.60;0.50;;;24.70;87.30;;;;;;5020582;28;20394;-88
2020/12/22 01:32:40;;;;;;;2.45;0.20;;;24.90;86.40;;;;;;5048269;28;20486;-89
2020/12/22 01:35:08;;;;;;;0.30;0.10;;;25.20;80.50;;;;;;5051618;28;20388;-86
2020/12/22 01:37:35;;;;;;;0.50;0.17;;;25.40;80.40;;;;;;5066269;28;20397;-87
2020/12/22 01:40:03;;;;;;;0.70;0.10;;;25.40;73.40;;;;;;5052290;28;20472;-86
2020/12/22 01:42:30;;;;;;;0.35;0.15;;;25.20;73.30;;;;;;5047449;28;20533;-88
2020/12/22 01:44:57;;;;;;;1.30;0.28;;;25.00;74.90;;;;;;5033701;28;20810;-87
2020/12/22 01:47:26;;;;;;;2.60;0.20;;;24.80;80.20;;;;;;5072432;28;20401;-87
2020/12/22 01:49:55;;;;;;;2.10;0.20;;;24.80;78.00;;;;;;5066614;28;20754;-87
2020/12/22 01:52:23;;;;;;;1.30;0.17;;;24.90;73.60;;;;;;5059143;28;20411;-88
2020/12/22 01:54:50;;;;;;;0.50;0.22;;;25.10;76.50;;;;;;5063153;28;20382;-86
2020/12/22 01:57:22;;;;;;;1.20;0.10;;;25.40;78.70;;;;;;5047848;28;20467;-89
2020/12/22 01:59:49;;;;;;;1.02;0.20;;;25.60;76.60;;;;;;5043231;28;20420;-89
2020/12/22 02:02:16;;;;;;;2.00;0.30;;;25.80;73.70;;;;;;5057869;28;21356;-88
2020/12/22 02:04:43;;;;;;;0.55;0.30;;;25.90;75.60;;;;;;5054610;28;20411;-86
2020/12/22 02:07:12;;;;;;;0.73;0.20;;;26.00;74.00;;;;;;5066640;28;20435;-88
2020/12/22 02:09:43;;;;;;;1.20;0.10;;;25.90;73.20;;;;;;5066056;28;20402;-88
2020/12/22 02:12:10;;;;;;;0.28;0.28;;;25.80;70.30;;;;;;5049133;28;20438;-88
2020/12/22 02:14:38;;;;;;;2.25;0.40;;;25.60;72.50;;;;;;5049174;28;20457;-89
2020/12/22 02:17:05;;;;;;;1.80;0.43;;;25.40;71.70;;;;;;5051738;28;20549;-88
2020/12/22 02:19:33;;;;;;;1.80;0.38;;;25.30;74.20;;;;;;5053619;28;20392;-90
2020/12/22 02:22:00;;;;;;;1.55;0.40;;;25.20;74.00;;;;;;5044425;28;20404;-89
2020/12/22 02:24:36;;;;;;;2.90;0.80;;;25.20;74.90;;;;;;5053688;28;20392;-89
2020/12/22 02:27:05;;;;;;;0.43;0.40;;;25.10;74.00;;;;;;5050831;28;20407;-87
2020/12/22 02:29:33;;;;;;;2.58;1.05;;;25.00;73.90;;;;;;5030897;28;20518;-88
2020/12/22 02:32:00;;;;;;;2.00;0.85;;;25.00;74.40;;;;;;5059060;28;20390;-87
2020/12/22 02:34:28;;;;;;;2.30;0.60;;;25.00;74.30;;;;;;5053386;28;20403;-88
2020/12/22 02:36:55;;;;;;;2.00;0.60;;;25.00;73.50;;;;;;5067483;28;20389;-86
2020/12/22 02:39:22;;;;;;;6.20;0.70;;;25.00;72.40;;;;;;5072667;28;20374;-86
2020/12/22 02:41:50;;;;;;;1.65;0.43;;;25.10;73.50;;;;;;5043341;28;20405;-88
2020/12/22 02:44:17;;;;;;;0.40;0.40;;;25.00;69.90;;;;;;5054195;28;20386;-88
2020/12/22 02:46:44;;;;;;;2.97;0.57;;;25.00;68.40;;;;;;5059350;28;20458;-88
2020/12/22 02:49:11;;;;;;;1.70;0.70;;;25.00;73.20;;;;;;5051358;28;20396;-89
2020/12/22 02:51:39;;;;;;;0.60;0.32;;;25.10;72.70;;;;;;5058269;28;20382;-91
2020/12/22 02:54:06;;;;;;;0.20;0.20;;;24.90;68.30;;;;;;5052131;28;20833;-91
2020/12/22 02:56:33;;;;;;;1.83;0.30;;;25.20;67.60;;;;;;5071126;28;20474;-91
2020/12/22 02:59:01;;;;;;;1.25;0.25;;;25.40;66.30;;;;;;5064946;28;20391;-89
2020/12/22 03:01:28;;;;;;;1.08;0.30;;;25.50;67.20;;;;;;5050603;28;20380;-90
2020/12/22 03:03:55;;;;;;;0.95;0.20;;;25.60;63.50;;;;;;5049575;28;20388;-89
2020/12/22 03:06:24;;;;;;;2.65;0.50;;;25.70;63.90;;;;;;5065057;28;21080;-90
2020/12/22 03:08:51;;;;;;;0.45;0.20;;;25.80;66.40;;;;;;5054513;28;20378;-89
2020/12/22 03:11:19;;;;;;;0.50;0.40;;;25.90;62.50;;;;;;5066498;28;20391;-89
2020/12/22 03:13:46;;;;;;;0.10;0.03;;;26.00;59.70;;;;;;5026375;28;20886;-91
2020/12/22 03:16:17;;;;;;;0.20;0.20;;;26.20;63.60;;;;;;5030961;28;20889;-91
2020/12/22 03:18:44;;;;;;;1.00;0.20;;;25.90;55.20;;;;;;5040557;28;20385;-89
2020/12/22 03:21:12;;;;;;;2.78;0.20;;;25.80;60.80;;;;;;5031196;28;20462;-90
2020/12/22 03:23:40;;;;;;;1.85;0.10;;;25.80;63.20;;;;;;5026110;28;20388;-90
2020/12/22 03:26:07;;;;;;;0.95;0.13;;;25.70;61.70;;;;;;5049136;28;20402;-91
2020/12/22 03:28:34;;;;;;;0.10;0.10;;;25.70;62.80;;;;;;5038789;28;20725;-90
2020/12/22 03:31:02;;;;;;;1.38;0.20;;;25.60;63.50;;;;;;5045394;28;20466;-89
2020/12/22 03:33:29;;;;;;;4.15;0.40;;;25.60;62.90;;;;;;5034897;28;20425;-90
2020/12/22 03:35:56;;;;;;;2.28;0.20;;;25.60;61.50;;;;;;5040466;28;20460;-91
2020/12/22 03:38:24;;;;;;;0.17;0.10;;;25.60;60.50;;;;;;5032285;28;20401;-90
2020/12/22 03:40:51;;;;;;;1.27;0.20;;;25.60;59.80;;;;;;5037711;28;20378;-90
2020/12/22 03:43:18;;;;;;;0.40;0.10;;;25.60;57.40;;;;;;5064535;28;20822;-91
2020/12/22 03:45:48;;;;;;;3.70;0.20;;;25.50;60.50;;;;;;5072932;28;20398;-88
2020/12/22 03:48:16;;;;;;;3.70;0.20;;;25.50;60.50;;;;;;5072084;28;20398;-87
2020/12/22 03:50:43;;;;;;;1.55;0.35;;;25.40;58.20;;;;;;5072989;28;20462;-90
2020/12/22 03:53:10;;;;;;;1.70;0.10;;;25.40;60.60;;;;;;5071667;28;20386;-88
2020/12/22 03:55:37;;;;;;;1.20;0.13;;;25.40;59.50;;;;;;5070893;28;20393;-89
2020/12/22 03:58:05;;;;;;;2.90;0.17;;;25.40;59.00;;;;;;5072067;28;20436;-91
2020/12/22 04:00:32;;;;;;;2.10;0.20;;;25.50;62.80;;;;;;5066318;28;20478;-88
2020/12/22 04:02:59;;;;;;;2.70;0.60;;;25.50;61.50;;;;;;5056152;28;20461;-87
2020/12/22 04:05:26;;;;;;;0.40;0.10;;;25.60;60.90;;;;;;5051021;28;20809;-89
2020/12/22 04:07:57;;;;;;;4.22;0.22;;;25.70;57.10;;;;;;5051907;28;20426;-89
2020/12/22 04:10:24;;;;;;;1.20;0.10;;;25.70;57.50;;;;;;5034279;28;20458;-88
2020/12/22 04:12:51;;;;;;;7.13;0.30;;;25.90;60.10;;;;;;5052177;28;20891;-88
2020/12/22 04:15:18;;;;;;;3.85;0.10;;;26.00;54.00;;;;;;5052279;28;20379;-90
2020/12/22 04:17:46;;;;;;;2.00;0.10;;;26.00;56.70;;;;;;5070207;28;20386;-89
2020/12/22 04:20:13;;;;;;;1.77;0.10;;;26.00;57.30;;;;;;5054644;28;20370;-89
2020/12/22 04:22:41;;;;;;;1.30;0.10;;;25.80;57.10;;;;;;5072423;28;20719;-88
2020/12/22 04:25:08;;;;;;;1.20;0.10;;;25.80;54.80;;;;;;5053421;28;20408;-88
2020/12/22 04:27:35;;;;;;;0.00;0.00;;;25.60;55.70;;;;;;5035272;28;20379;-88
2020/12/22 04:30:04;;;;;;;1.88;0.10;;;25.50;54.40;;;;;;5063186;28;20461;-89
2020/12/22 04:32:31;;;;;;;1.45;0.20;;;25.40;53.70;;;;;;5051065;28;20724;-89
2020/12/22 04:34:58;;;;;;;4.63;0.20;;;25.40;54.40;;;;;;5056028;28;20778;-88
2020/12/22 04:37:26;;;;;;;1.48;0.30;;;25.40;57.10;;;;;;5051395;28;20453;-88
2020/12/22 04:39:53;;;;;;;2.60;0.50;;;25.30;55.40;;;;;;5051361;28;20894;-88
2020/12/22 04:42:26;;;;;;;0.65;0.10;;;25.30;56.00;;;;;;5050972;28;20437;-89
2020/12/22 04:44:54;;;;;;;1.10;0.10;;;25.30;54.70;;;;;;5056507;28;20382;-88
2020/12/22 04:47:25;;;;;;;4.50;0.20;;;25.20;54.60;;;;;;5058563;28;20402;-87
2020/12/22 04:49:57;;;;;;;1.20;0.10;;;25.20;54.70;;;;;;5033522;28;20383;-85
2020/12/22 04:52:26;;;;;;;0.80;0.10;;;25.20;54.00;;;;;;5063384;28;20379;-87
2020/12/22 04:54:53;;;;;;;1.92;0.13;;;25.20;54.40;;;;;;5060179;28;20382;-87
2020/12/22 04:57:26;;;;;;;1.25;0.20;;;25.40;55.20;;;;;;5059648;28;20397;-87
2020/12/22 04:59:54;;;;;;;1.10;0.20;;;25.60;53.50;;;;;;5071671;28;20378;-90
2020/12/22 05:02:23;;;;;;;2.95;0.30;;;25.80;52.60;;;;;;5069973;28;20749;-88
2020/12/22 05:04:50;;;;;;;2.38;0.10;;;25.80;51.60;;;;;;5062644;28;20464;-89
2020/12/22 05:07:18;;;;;;;1.30;0.10;;;25.80;51.60;;;;;;5064876;28;20392;-87
2020/12/22 05:09:48;;;;;;;2.28;0.10;;;25.70;52.10;;;;;;5056011;28;20378;-87
2020/12/22 05:12:15;;;;;;;1.90;0.10;;;25.80;53.70;;;;;;5059472;28;20386;-87
2020/12/22 05:14:42;;;;;;;0.60;0.10;;;25.90;50.70;;;;;;5069504;28;20386;-88
2020/12/22 05:17:14;;;;;;;2.50;0.20;;;25.90;50.30;;;;;;5067091;28;20390;-88
2020/12/22 05:19:43;;;;;;;2.78;0.22;;;25.90;52.30;;;;;;5049929;28;20392;-87
2020/12/22 05:22:11;;;;;;;1.30;0.28;;;25.90;51.10;;;;;;5050794;28;20388;-88
2020/12/22 05:24:40;;;;;;;2.20;0.20;;;25.80;52.60;;;;;;5034156;28;20384;-89
2020/12/22 05:27:08;;;;;;;4.60;0.10;;;25.60;51.50;;;;;;5032681;28;20494;-88
2020/12/22 05:29:36;;;;;;;2.00;0.20;;;25.50;52.70;;;;;;5052240;28;20943;-87
2020/12/22 05:32:05;;;;;;;0.80;0.38;;;25.50;51.40;;;;;;5048190;28;20395;-90
2020/12/22 05:34:32;;;;;;;4.13;0.30;;;25.50;52.10;;;;;;5050085;28;20925;-88
2020/12/22 05:37:00;;;;;;;3.70;0.50;;;25.60;52.30;;;;;;5049375;28;20380;-92
2020/12/22 05:39:27;;;;;;;2.55;0.30;;;25.80;52.10;;;;;;5056131;28;20378;-87
2020/12/22 05:41:55;;;;;;;4.35;0.20;;;25.90;50.60;;;;;;5059705;28;20894;-86
2020/12/22 05:44:26;;;;;;;1.05;0.20;;;26.00;52.00;;;;;;5061723;28;20464;-89
2020/12/22 05:46:54;;;;;;;2.63;0.20;;;25.90;52.00;;;;;;5063447;28;20548;-87
2020/12/22 05:49:21;;;;;;;2.30;0.20;;;25.80;51.20;;;;;;5062476;28;20399;-89
2020/12/22 05:51:49;;;;;;;1.73;0.17;;;25.70;51.10;;;;;;5054625;28;20668;-88
2020/12/22 05:54:17;;;;;;;2.60;0.20;;;25.60;53.50;;;;;;5031917;28;20388;-87
2020/12/22 05:56:45;;;;;;;3.70;0.60;;;25.70;51.40;;;;;;5032621;28;20921;-87
2020/12/22 05:59:19;;;;;;;3.17;0.30;;;25.80;51.70;;;;;;5051409;28;20429;-87
2020/12/22 06:01:47;;;;;;;4.00;0.30;;;25.80;52.50;;;;;;5048747;28;20398;-89
2020/12/22 06:04:18;;;;;;;2.65;0.20;;;25.70;49.70;;;;;;5026426;28;20394;-85
2020/12/22 06:06:46;;;;;;;5.05;0.55;;;25.60;49.20;;;;;;5053942;28;20420;-88
2020/12/22 06:09:14;;;;;;;4.00;0.10;;;25.40;49.50;;;;;;5045059;28;20409;-88
2020/12/22 06:11:41;;;;;;;1.73;0.13;;;25.20;51.00;;;;;;5040465;28;20752;-88
2020/12/22 06:14:09;;;;;;;5.90;0.30;;;25.10;50.00;;;;;;5050187;28;20455;-90
2020/12/22 06:16:38;;;;;;;2.95;0.22;;;25.10;49.10;;;;;;5051708;28;20414;-87
2020/12/22 06:19:08;;;;;;;1.25;0.25;;;25.10;49.80;;;;;;5067515;28;20932;-88
2020/12/22 06:21:37;;;;;;;0.30;0.10;;;25.10;50.10;;;;;;5069214;28;20381;-88
2020/12/22 06:24:04;;;;;;;1.50;0.20;;;24.90;50.00;;;;;;5057408;28;20435;-89
2020/12/22 06:26:32;;;;;;;4.88;0.40;;;24.90;51.80;;;;;;5049438;28;20814;-87
2020/12/22 06:28:59;;;;;;;1.00;0.10;;;24.80;49.90;;;;;;5053906;28;20869;-88
2020/12/22 06:31:33;;;;;;;1.15;0.17;;;24.70;50.40;;;;;;5028342;28;20416;-89
2020/12/22 06:34:01;;;;;;;1.30;0.30;;;24.70;49.80;;;;;;5046766;28;20393;-88
2020/12/22 06:36:28;;;;;;;0.68;0.20;;;24.70;50.90;;;;;;5067035;28;20401;-90
2020/12/22 06:39:01;;;;;;;3.50;0.20;;;24.60;51.20;;;;;;5069455;28;20468;-88
2020/12/22 06:41:35;;;;;;;3.70;0.35;;;24.60;49.30;;;;;;5048201;28;20409;-89
2020/12/22 06:44:19;;;;;;;2.00;0.10;;;24.50;50.50;;;;;;5056554;28;20380;-89
2020/12/22 06:46:51;;;;;;;10.13;0.63;;;24.50;48.80;;;;;;5053179;28;20422;-90
2020/12/22 06:49:39;;;;;;;4.28;0.20;;;24.40;50.60;;;;;;5045929;28;20394;-90
2020/12/22 06:52:32;;;;;;;2.55;0.47;;;24.30;50.40;;;;;;5026798;28;20392;-90
2020/12/22 06:55:01;;;;;;;3.90;0.28;;;24.30;49.00;;;;;;5048901;28;20465;-88
2020/12/22 06:57:48;;;;;;;2.83;0.30;;;24.10;50.40;;;;;;5049842;28;20387;-91
2020/12/22 07:00:36;;;;;;;2.42;0.28;;;24.00;49.90;;;;;;5034130;28;20480;-88
2020/12/22 07:03:17;;;;;;;5.28;0.40;;;23.90;49.20;;;;;;5042212;28;20393;-89
2020/12/22 07:05:47;;;;;;;5.30;0.30;;;23.80;49.70;;;;;;5033207;28;20411;-87
2020/12/22 07:08:16;;;;;;;0.55;0.20;;;23.80;48.70;;;;;;5054982;28;20423;-89
2020/12/22 07:10:46;;;;;;;1.58;0.20;;;23.80;48.90;;;;;;5058122;28;20437;-88
2020/12/22 07:13:16;;;;;;;1.00;0.10;;;23.80;49.30;;;;;;5057030;28;20467;-87
2020/12/22 07:15:46;;;;;;;1.85;0.30;;;23.70;49.80;;;;;;5041437;28;20396;-88
2020/12/22 07:18:18;;;;;;;2.53;0.50;;;23.70;49.70;;;;;;5054372;28;20483;-88
2020/12/22 07:20:46;;;;;;;4.60;0.50;;;23.80;49.70;;;;;;5050783;28;20918;-88
2020/12/22 07:23:15;;;;;;;3.72;0.32;;;23.80;48.60;;;;;;5045480;28;20425;-88
2020/12/22 07:25:43;;;;;;;0.87;0.30;;;23.70;49.40;;;;;;5052067;28;20494;-87
2020/12/22 07:28:13;;;;;;;2.35;0.40;;;23.70;48.90;;;;;;5048985;28;20400;-87
2020/12/22 07:30:41;;;;;;;2.10;0.40;;;23.70;51.20;;;;;;5049679;28;20379;-89
2020/12/22 07:33:08;;;;;;;6.93;0.70;;;23.70;50.10;;;;;;5041042;28;20894;-87
2020/12/22 07:35:35;;;;;;;1.90;0.40;;;23.70;46.60;;;;;;5052630;28;20388;-88
2020/12/22 07:38:10;;;;;;;4.90;0.40;;;23.60;49.00;;;;;;5055215;28;20411;-88
2020/12/22 07:40:39;;;;;;;6.18;0.80;;;23.50;46.60;;;;;;5052179;28;20379;-86
2020/12/22 07:43:14;;;;;;;4.10;0.40;;;23.50;45.60;;;;;;5052246;28;20416;-86
2020/12/22 07:45:51;;;;;;;2.10;0.40;;;23.40;45.50;;;;;;5056153;28;20479;-86
2020/12/22 07:48:32;;;;;;;2.50;0.10;;;23.30;45.30;;;;;;5050080;28;20801;-86
2020/12/22 07:50:59;;;;;;;1.45;0.22;;;23.30;44.00;;;;;;5054100;28;20408;-91
2020/12/22 07:53:26;;;;;;;3.50;0.20;;;23.20;45.20;;;;;;5055340;28;20913;-89
2020/12/22 07:56:04;;;;;;;0.50;0.10;;;23.20;44.70;;;;;;5061561;28;20429;-92
2020/12/22 07:58:32;;;;;;;2.40;0.20;;;23.10;42.80;;;;;;5037481;28;20877;-91
2020/12/22 08:01:01;;;;;;;4.15;1.00;;;23.10;42.30;;;;;;5056217;28;20399;-86
2020/12/22 08:03:30;;;;;;;5.93;0.38;;;23.10;42.80;;;;;;5065147;28;20433;-87
2020/12/22 08:06:01;;;;;;;2.38;0.30;;;23.00;43.50;;;;;;5054246;28;20474;-91
2020/12/22 08:08:28;;;;;;;5.40;0.30;;;23.00;42.30;;;;;;5072953;28;20469;-92
2020/12/22 08:10:56;;;;;;;1.98;0.28;;;22.90;44.20;;;;;;5073962;28;20412;-89
2020/12/22 08:13:29;;;;;;;4.50;0.35;;;22.90;42.60;;;;;;5078889;28;20370;-88
2020/12/22 08:15:58;;;;;;;2.70;0.50;;;23.00;43.70;;;;;;5073923;28;20374;-87
2020/12/22 08:18:29;;;;;;;0.68;0.22;;;22.90;43.30;;;;;;5059624;28;20484;-87
2020/12/22 08:20:58;;;;;;;2.70;0.30;;;22.90;44.80;;;;;;5043751;28;20392;-87
2020/12/22 08:23:25;;;;;;;2.88;0.30;;;22.80;44.80;;;;;;5058974;28;20947;-87
2020/12/22 08:25:53;;;;;;;3.38;0.50;;;22.80;44.90;;;;;;5048989;28;20509;-85
2020/12/22 08:28:27;;;;;;;4.63;0.30;;;22.70;47.10;;;;;;5049867;28;20779;-86
2020/12/22 08:30:55;;;;;;;4.70;0.50;;;22.70;46.10;;;;;;5050612;28;20474;-87
2020/12/22 08:33:23;;;;;;;1.77;0.20;;;22.60;46.40;;;;;;5051513;28;20594;-88
2020/12/22 08:35:52;;;;;;;2.37;0.50;;;22.50;46.30;;;;;;5059747;28;20378;-87
2020/12/22 08:38:26;;;;;;;2.50;0.28;;;22.50;47.60;;;;;;5062961;28;20395;-87
2020/12/22 08:40:56;;;;;;;3.67;0.52;;;22.50;47.90;;;;;;5035873;28;20492;-86
2020/12/22 08:43:25;;;;;;;3.40;0.35;;;22.50;48.50;;;;;;5048460;28;20945;-86
2020/12/22 08:45:53;;;;;;;3.60;0.52;;;22.30;47.20;;;;;;5047056;28;20415;-86
2020/12/22 08:48:23;;;;;;;2.60;0.47;;;22.30;47.90;;;;;;5048478;28;20435;-87
2020/12/22 08:50:54;;;;;;;2.85;0.40;;;22.30;46.90;;;;;;5018308;28;20468;-86
2020/12/22 08:53:21;;;;;;;1.90;0.30;;;22.30;48.30;;;;;;5028286;28;20380;-86
2020/12/22 08:55:48;;;;;;;1.70;0.38;;;22.20;48.20;;;;;;5054107;28;20404;-87
2020/12/22 08:58:15;;;;;;;4.22;0.30;;;22.20;49.00;;;;;;5048968;28;20477;-87
2020/12/22 09:00:43;;;;;;;1.85;0.28;;;22.10;48.70;;;;;;5049218;28;20451;-88
2020/12/22 09:03:11;;;;;;;2.10;0.30;;;22.00;49.00;;;;;;5045727;28;21169;-89
2020/12/22 09:05:38;;;;;;;2.10;0.40;;;22.00;49.50;;;;;;5050734;28;20417;-85
2020/12/22 09:08:07;;;;;;;1.90;0.30;;;22.00;50.00;;;;;;5048140;28;20391;-88
2020/12/22 09:10:34;;;;;;;2.28;0.40;;;21.90;48.40;;;;;;5063543;28;21027;-85
2020/12/22 09:13:03;;;;;;;1.63;0.30;;;21.90;49.50;;;;;;5040089;28;20489;-85
2020/12/22 09:15:30;;;;;;;1.60;0.30;;;21.80;49.40;;;;;;5053270;28;20397;-86
2020/12/22 09:17:57;;;;;;;5.93;0.50;;;21.80;49.40;;;;;;5068074;28;21103;-86
2020/12/22 09:20:24;;;;;;;1.58;0.40;;;21.80;49.30;;;;;;5039975;28;20412;-85
2020/12/22 09:22:52;;;;;;;1.02;0.30;;;21.80;49.60;;;;;;5043938;28;20395;-85
2020/12/22 09:25:19;;;;;;;1.00;0.47;;;21.70;50.20;;;;;;5045186;28;20404;-86
2020/12/22 09:27:46;;;;;;;2.65;0.40;;;21.70;50.40;;;;;;5057481;28;20399;-84
2020/12/22 09:30:16;;;;;;;1.02;0.30;;;21.70;49.60;;;;;;5044667;28;20395;-86
2020/12/22 09:32:47;;;;;;;3.10;0.40;;;21.60;50.30;;;;;;5027567;28;20486;-86
2020/12/22 09:35:14;;;;;;;1.30;0.43;;;21.50;49.80;;;;;;5045551;28;20403;-86
2020/12/22 09:37:41;;;;;;;7.07;0.35;;;21.50;51.60;;;;;;5055044;28;20443;-85
2020/12/22 09:40:09;;;;;;;4.22;0.82;;;21.50;50.50;;;;;;5038557;28;20401;-86
2020/12/22 09:42:36;;;;;;;2.97;0.40;;;21.40;50.40;;;;;;5036518;28;20400;-85
2020/12/22 09:45:03;;;;;;;3.45;0.40;;;21.40;50.80;;;;;;5057476;28;20379;-84
2020/12/22 09:47:31;;;;;;;3.00;0.50;;;21.40;49.40;;;;;;5043447;28;20407;-84
2020/12/22 09:49:58;;;;;;;2.40;0.32;;;21.30;50.30;;;;;;5050736;28;20376;-84
2020/12/22 09:52:25;;;;;;;3.13;0.30;;;21.30;49.10;;;;;;5046281;28;20410;-83
2020/12/22 09:54:52;;;;;;;3.00;0.45;;;21.30;48.60;;;;;;5045743;28;21230;-85
2020/12/22 09:57:20;;;;;;;4.30;0.25;;;21.20;47.90;;;;;;5047515;28;20395;-85
2020/12/22 09:59:47;;;;;;;3.70;0.40;;;21.20;47.30;;;;;;5049144;28;20389;-85
2020/12/22 10:02:14;;;;;;;3.50;0.30;;;21.20;47.30;;;;;;5042020;28;20481;-84
2020/12/22 10:04:41;;;;;;;2.17;0.30;;;21.20;45.90;;;;;;5053388;28;20810;-86
2020/12/22 10:07:09;;;;;;;1.10;0.25;;;21.20;46.60;;;;;;5058303;28;20499;-84
2020/12/22 10:09:36;;;;;;;1.48;0.28;;;21.10;47.00;;;;;;5050086;28;20767;-86
2020/12/22 10:12:03;;;;;;;3.40;0.50;;;21.10;47.20;;;;;;5050046;28;20435;-85
2020/12/22 10:14:32;;;;;;;3.55;0.20;;;21.10;47.20;;;;;;5049849;28;20976;-84
2020/12/22 10:16:59;;;;;;;3.03;0.30;;;21.00;48.10;;;;;;5049724;28;20388;-85
2020/12/22 10:19:26;;;;;;;4.57;0.20;;;20.90;48.10;;;;;;5049657;28;20462;-85
2020/12/22 10:21:54;;;;;;;3.00;0.15;;;20.90;48.10;;;;;;5050053;28;20883;-84
2020/12/22 10:24:21;;;;;;;1.17;0.15;;;20.80;48.50;;;;;;5049538;28;20380;-86
2020/12/22 10:26:48;;;;;;;4.38;0.22;;;20.70;47.50;;;;;;5046654;28;20406;-85
2020/12/22 10:29:16;;;;;;;3.15;0.30;;;20.70;47.70;;;;;;5043438;28;20403;-86
2020/12/22 10:31:46;;;;;;;4.18;0.82;;;20.70;47.10;;;;;;5048130;28;20439;-87
2020/12/22 10:34:13;;;;;;;2.73;0.30;;;20.60;46.90;;;;;;5051667;28;20376;-85
2020/12/22 10:36:40;;;;;;;1.27;0.30;;;20.60;47.00;;;;;;5044160;28;20953;-88
2020/12/22 10:39:08;;;;;;;1.50;0.30;;;20.50;46.50;;;;;;5049671;28;21095;-85
2020/12/22 10:41:35;;;;;;;1.23;0.20;;;20.50;46.90;;;;;;5045470;28;20741;-87
2020/12/22 10:44:08;;;;;;;2.03;0.10;;;20.50;47.00;;;;;;5050995;28;21023;-86
2020/12/22 10:46:40;;;;;;;1.92;0.20;;;20.40;45.00;;;;;;5043097;28;20423;-84
2020/12/22 10:49:14;;;;;;;1.25;0.10;;;20.40;45.30;;;;;;5031944;28;20446;-85
2020/12/22 10:51:41;;;;;;;2.78;0.17;;;20.30;45.90;;;;;;5030426;28;20434;-87
2020/12/22 10:54:08;;;;;;;4.28;0.10;;;20.30;45.80;;;;;;5033084;28;20396;-86
2020/12/22 10:56:43;;;;;;;1.20;0.20;;;20.20;45.10;;;;;;5032249;28;20424;-84
2020/12/22 10:59:10;;;;;;;3.08;0.20;;;20.20;46.60;;;;;;5038911;28;20832;-87
2020/12/22 11:01:40;;;;;;;0.70;0.20;;;20.00;45.70;;;;;;5046671;28;20387;-85
2020/12/22 11:04:07;;;;;;;0.50;0.17;;;20.00;46.10;;;;;;5032256;28;20397;-85
2020/12/22 11:09:04;;;;;;;0.20;0.10;;;19.80;46.70;;;;;;5042882;28;20496;-84
2020/12/22 11:11:31;;;;;;;0.37;0.13;;;19.80;47.20;;;;;;5067264;28;20481;-85
2020/12/22 11:13:59;;;;;;;1.10;0.40;;;19.70;46.90;;;;;;5058306;28;20734;-85
2020/12/22 11:16:27;;;;;;;2.38;0.20;;;19.70;47.30;;;;;;5039309;28;20418;-84
2020/12/22 11:18:55;;;;;;;0.37;0.13;;;19.60;47.10;;;;;;5053251;28;20397;-83
2020/12/22 11:21:24;;;;;;;1.40;0.40;;;19.60;47.10;;;;;;5036929;28;20479;-84
2020/12/22 11:23:51;;;;;;;0.80;0.20;;;19.50;46.40;;;;;;5048816;28;20398;-85
2020/12/22 11:26:23;;;;;;;1.85;0.30;;;19.50;47.00;;;;;;5051781;28;20412;-87
2020/12/22 11:28:52;;;;;;;1.65;0.40;;;19.40;47.70;;;;;;5048446;28;20724;-86
2020/12/22 11:31:19;;;;;;;6.32;0.20;;;19.40;47.90;;;;;;5048057;28;20407;-85
2020/12/22 11:33:47;;;;;;;3.00;0.13;;;19.30;47.80;;;;;;5051393;28;20465;-85
2020/12/22 11:36:15;;;;;;;0.40;0.20;;;19.20;48.00;;;;;;5047867;28;20399;-84
2020/12/22 11:38:43;;;;;;;2.40;0.20;;;19.10;48.10;;;;;;5038477;28;20408;-86
2020/12/22 11:41:10;;;;;;;4.78;0.28;;;19.10;49.30;;;;;;5050418;28;20400;-85
2020/12/22 11:43:37;;;;;;;0.60;0.20;;;19.00;49.20;;;;;;5048781;28;20380;-85
2020/12/22 11:46:07;;;;;;;3.60;0.22;;;18.90;49.50;;;;;;5047291;28;20408;-83
2020/12/22 11:48:37;;;;;;;1.17;0.20;;;18.90;49.20;;;;;;5048717;28;20476;-85
2020/12/22 11:51:05;;;;;;;0.50;0.10;;;18.90;49.60;;;;;;5045954;28;20393;-84
2020/12/22 11:53:33;;;;;;;3.47;0.20;;;18.80;49.00;;;;;;5046725;28;20403;-84
2020/12/22 11:56:00;;;;;;;2.70;0.20;;;18.80;49.20;;;;;;5050678;28;20441;-85
2020/12/22 11:58:28;;;;;;;1.90;0.15;;;18.70;48.90;;;;;;5046264;28;20407;-84
2020/12/22 12:00:55;;;;;;;1.30;0.10;;;18.80;49.30;;;;;;5061836;28;20899;-85
2020/12/22 12:03:22;;;;;;;1.30;0.13;;;18.80;48.20;;;;;;5039615;28;20552;-85
2020/12/22 12:05:49;;;;;;;3.70;0.10;;;18.70;49.20;;;;;;5039456;28;20894;-84
2020/12/22 12:08:17;;;;;;;0.40;0.10;;;18.60;49.90;;;;;;5047059;28;20398;-83
2020/12/22 12:10:45;;;;;;;2.08;0.20;;;18.60;49.30;;;;;;5043067;28;20919;-84
2020/12/22 12:13:12;;;;;;;1.45;0.10;;;18.50;50.20;;;;;;5035181;28;20396;-83
2020/12/22 12:15:39;;;;;;;0.60;0.10;;;18.50;50.70;;;;;;5046290;28;20404;-83
2020/12/22 12:18:07;;;;;;;1.60;0.20;;;18.40;51.70;;;;;;5035323;28;20435;-84
2020/12/22 12:20:34;;;;;;;1.60;0.20;;;18.30;52.10;;;;;;5046932;28;20437;-83
2020/12/22 12:23:01;;;;;;;2.17;0.20;;;18.20;52.00;;;;;;5044495;28;20405;-84
2020/12/22 12:25:28;;;;;;;0.90;0.50;;;18.20;51.80;;;;;;5050079;28;20399;-85
2020/12/22 12:27:56;;;;;;;3.22;0.57;;;18.20;50.90;;;;;;5051327;28;20396;-83
2020/12/22 12:30:23;;;;;;;2.45;0.32;;;18.10;51.70;;;;;;5049117;28;20378;-84
2020/12/22 12:32:50;;;;;;;1.27;0.40;;;18.10;51.90;;;;;;5065853;28;20394;-83
2020/12/22 12:35:17;;;;;;;2.83;0.50;;;18.10;52.20;;;;;;5047311;28;20401;-83
2020/12/22 12:37:45;;;;;;;1.05;0.50;;;18.00;52.80;;;;;;5053834;28;20393;-83
2020/12/22 12:40:12;;;;;;;1.90;0.20;;;18.00;52.90;;;;;;5048723;28;20386;-83
2020/12/22 12:42:39;;;;;;;0.90;0.20;;;18.00;53.30;;;;;;5071346;28;20378;-83
2020/12/22 12:45:07;;;;;;;0.22;0.10;;;18.00;53.50;;;;;;5046338;28;20879;-83
2020/12/22 12:47:34;;;;;;;1.67;0.10;;;17.90;53.70;;;;;;5037645;28;20836;-84
2020/12/22 12:50:01;;;;;;;3.47;0.20;;;17.90;53.90;;;;;;5044302;28;20508;-84
2020/12/22 12:52:30;;;;;;;2.13;0.13;;;17.80;54.60;;;;;;5049265;28;20434;-83
2020/12/22 12:54:58;;;;;;;3.70;0.40;;;17.80;54.70;;;;;;5035967;28;20414;-83
2020/12/22 12:57:25;;;;;;;1.75;0.15;;;17.80;55.90;;;;;;5046272;28;20509;-83